Relevés horaires St-Hubert (Belgique)


Relevés horaires à St-Hubert - Vendredi 01 Mai 2026
Heure UTC1 Température [°C] Vent [km/h] Hum. [%] Pres.4 [hPa] Visi. [Km] Nébu. [octa] Préc.5 [mm] Cond.
2m. Res. Ros. Dir.2 Vit. Moy. Raf.3
23:00 13.3 13 1.1 SE 7.4 5.6 11.1 43 1022.5(0.2/3h) >70 -- -- --
22:00 13.3 13.3 0.5 SSE 5.6 5.6 9.3 41 1022.7(0.2/3h) >70 -- -- --
21:00 13.7 13.7 -0.1 SE 5.6 5.6 11.1 39 1022.8(0.3/3h) >70 -- -- --
20:00 14.7 14.7 -- SE 5.6 5.6 7.4 -- 1022.4(-0.1/3h) >70 -- -- --
19:00 14.4 14.4 -0.3 SE 3.7 3.7 7.4 36 1022.3(-0.4/3h) >70 -- -- --
18:00 17.9 17.9 -0.6 S 3.7 11.1 18.5 29 1021.5(-0.6/3h) >70 -- 0/12h
--
17:00 19.0 19.0 -0.3 S 5.6 7.4 13.0 27 1021.5(-0.7/3h) >70 -- -- --
16:00 19.1 19.1 -0.7 S 5.6 7.4 14.8 26 1021.6(-0.9/3h) >70 -- -- --
15:00 19.0 19.0 -0.4 NNO 3.7 11.1 18.5 27 1021.9(-0.9/3h) >70 -- -- --
14:00 19.4 19.4 0.8 S 5.6 9.3 16.7 29 1022.2(-0.8/3h) >70 -- -- --
13:00 19.1 19.1 1.0 S 7.4 11.1 18.5 30 1022.6(-0.8/3h) >70 -- -- --
12:00 18.0 18.0 0.2 ESE 11.1 13.0 20.4 30 1023.1(0.1/3h) >70 -- 0/6h
--
11:00 16.4 16.4 -0.6 SSE 9.3 9.3 20.4 31 1023.8(0.0/3h) >70 -- -- --
10:00 14.7 14.3 -1.5 SSE 9.3 13.0 20.4 33 1024.4(0.6/3h) >70 -- -- --
09:00 13.8 12.8 -3.7 ESE 13.0 13.0 20.4 29 1024.3(0.7/3h) >70 -- -- --
08:00 12.0 10.6 -3.5 ESE 13.0 13.0 18.5 34 1024.8(0.7/3h) >70 -- -- --
07:00 10.3 8.8 -4.0 ESE 11.1 13.0 20.4 36 1024.8(0.5/3h) >70 -- -- --
06:00 8.4 6.2 -5.1 E 13.0 16.7 24.1 38 1024.9(0.2/3h) >70 -- 0/12h
--
05:00 7.5 5.8 -5.8 E 9.3 11.1 16.7 38 1025.2(0.4/3h) >70 -- -- --
04:00 7.6 5.6 -6.0 E 11.1 13.0 20.4 37 1024.9(-0.8/3h) >70 -- -- --
03:00 8.4 6.2 -6.2 ESE 13.0 16.7 24.1 35 1024.7(-0.6/3h) >70 -- -- --
02:00 9.3 6.8 -6.5 ESE 16.7 16.7 22.2 32 1024.4(-0.6/3h) >70 -- -- --
01:00 8.7 7.2 -6.4 ESE 9.3 14.8 20.4 34 1025.6(0.3/3h) >70 -- -- --
00:00 9.3 7.6 -6.0 E 11.1 14.8 22.2 33 1025.1(0.1/3h) >70 -- 0/6h
0/24h
--

1 Coordinated Universal Time. Actuellement il est 04:00 locale et 02:00 UTC.

2 Le vent souffle depuis la direction indiquée vers la direction oposée.

3 Les rafales max. sont disponible 40 min après l'heure du relevé.

4 Pour les stations d'altitude (plus de 600m) le géopotentiel du niveau le plus proche de la pression obligatoire est indiqué.

5 Les stations disposant d'un diffuseur peuvent indiquer "trace". Cela signifie que des précipitations ont touchés le sol mais que la quantité est inférieure à 0.1 mm.

Récapitulatif de la journée
Température [°C] Vent [km/h] Ensoleillement4 [h] Precipitations totale5 [mm] Pression [Hpa]
Min1 Max.2 Moy.3 Max. Min Max.
6.5 19.9 10.9 24.1 0 h 0 min 0 1021.5 1025.6

1 Température minimale relevée entre 18:00 UTC la veille et 18:00 UTC le jour donné.

2 Température maximale relevée entre 06:00 UTC le jour donné et 06:00 UTC le lendemain.

3 Vent moyen de la journée basé sur les relevés horaires.

4 Ensoleillement en heures relevé entre 06:00 UTC la veille et 06:00 UTC le jour donné.

5 Précipitations totales tombées entre 06:00 UTC la jour donné et 06:00 UTC le lendemain.

Graphiques horaires